Time;durP1;ratioP1;P1;durP2;ratioP2;P2;SDS_P1;SDS_P2;PMS_P1;PMS_P2;Temp;Humidity;BMP_temperature;BMP_pressure;BME280_temperature;BME280_humidity;BME280_pressure;Samples;Min_cycle;Max_cycle;Signal;HPM_P1;HPM_P2
2021/10/25 00:01:41;;;;;;;7.87;5.40;;;;;;;;;;5076156;28;20266;-59
2021/10/25 00:04:06;;;;;;;8.00;5.93;;;;;;;;;;5076590;28;20287;-59
2021/10/25 00:06:31;;;;;;;7.93;5.10;;;;;;;;;;5076239;28;20226;-59
2021/10/25 00:08:56;;;;;;;8.47;5.63;;;;;;;;;;5076159;28;20291;-58
2021/10/25 00:11:22;;;;;;;8.40;5.60;;;;;;;;;;5075815;28;20572;-59
2021/10/25 00:13:47;;;;;;;9.90;4.80;;;;;;;;;;5076201;28;20295;-59
2021/10/25 00:16:12;;;;;;;8.07;5.57;;;;;;;;;;5076262;28;20220;-59
2021/10/25 00:18:38;;;;;;;7.37;5.33;;;;;;;;;;5075946;28;20394;-59
2021/10/25 00:21:03;;;;;;;6.50;5.10;;;;;;;;;;5076433;28;20271;-59
2021/10/25 00:23:29;;;;;;;9.23;6.00;;;;;;;;;;5075531;28;20216;-60
2021/10/25 00:25:55;;;;;;;5.70;4.70;;;;;;;;;;5076107;28;20252;-60
2021/10/25 00:28:21;;;;;;;7.00;4.77;;;;;;;;;;5076126;28;20487;-59
2021/10/25 00:30:46;;;;;;;8.93;5.23;;;;;;;;;;5075636;28;22053;-59
2021/10/25 00:33:11;;;;;;;8.40;6.00;;;;;;;;;;5076417;28;20215;-59
2021/10/25 00:35:36;;;;;;;6.20;5.60;;;;;;;;;;5076018;28;20524;-60
2021/10/25 00:38:03;;;;;;;10.27;6.30;;;;;;;;;;5076317;28;20289;-59
2021/10/25 00:40:28;;;;;;;7.30;5.70;;;;;;;;;;5075551;28;20222;-59
2021/10/25 00:42:54;;;;;;;10.03;5.47;;;;;;;;;;5075656;28;20444;-59
2021/10/25 00:45:19;;;;;;;6.83;5.07;;;;;;;;;;5076639;28;20218;-59
2021/10/25 00:47:45;;;;;;;8.50;4.90;;;;;;;;;;5075399;28;20249;-58
2021/10/25 00:50:10;;;;;;;8.83;5.77;;;;;;;;;;5075935;28;20302;-59
2021/10/25 00:52:38;;;;;;;6.60;5.87;;;;;;;;;;5075807;28;20230;-60
2021/10/25 00:55:05;;;;;;;8.07;5.47;;;;;;;;;;5076272;28;20254;-60
2021/10/25 00:57:30;;;;;;;6.87;4.87;;;;;;;;;;5075853;28;20464;-60
2021/10/25 00:59:56;;;;;;;6.87;5.30;;;;;;;;;;5075582;28;20449;-58
2021/10/25 01:02:21;;;;;;;5.90;5.30;;;;;;;;;;5075419;28;20228;-60
2021/10/25 01:04:46;;;;;;;7.30;5.60;;;;;;;;;;5075421;28;20212;-60
2021/10/25 01:07:12;;;;;;;6.77;5.20;;;;;;;;;;5075484;28;20629;-59
2021/10/25 01:09:38;;;;;;;7.70;4.97;;;;;;;;;;5074594;28;20652;-60
2021/10/25 01:12:04;;;;;;;5.67;4.90;;;;;;;;;;5075706;28;20252;-60
2021/10/25 01:14:29;;;;;;;8.90;5.40;;;;;;;;;;5074388;28;20523;-60
2021/10/25 01:16:54;;;;;;;6.30;5.10;;;;;;;;;;5075723;28;20357;-59
2021/10/25 01:19:20;;;;;;;7.57;5.20;;;;;;;;;;5075709;28;20655;-59
2021/10/25 01:21:45;;;;;;;5.57;4.87;;;;;;;;;;5074063;28;20254;-58
2021/10/25 01:24:10;;;;;;;8.30;5.40;;;;;;;;;;5075690;28;20227;-59
2021/10/25 01:26:35;;;;;;;7.10;5.40;;;;;;;;;;5075358;28;20532;-59
2021/10/25 01:29:01;;;;;;;6.73;5.50;;;;;;;;;;5075639;28;20212;-59
2021/10/25 01:31:26;;;;;;;6.27;4.67;;;;;;;;;;5075140;28;20229;-59
2021/10/25 01:33:51;;;;;;;8.90;5.53;;;;;;;;;;5075754;28;20226;-58
2021/10/25 01:36:17;;;;;;;7.53;5.57;;;;;;;;;;5075447;28;20234;-58
2021/10/25 01:38:43;;;;;;;6.30;4.60;;;;;;;;;;5075282;28;20217;-59
2021/10/25 01:41:08;;;;;;;7.23;4.70;;;;;;;;;;5075281;28;20556;-59
2021/10/25 01:43:35;;;;;;;6.53;5.30;;;;;;;;;;5075243;28;20433;-59
2021/10/25 01:46:01;;;;;;;5.70;4.47;;;;;;;;;;5075239;28;20540;-60
2021/10/25 01:48:27;;;;;;;7.43;4.70;;;;;;;;;;5075002;28;20458;-59
2021/10/25 01:50:52;;;;;;;6.00;4.67;;;;;;;;;;5075030;28;20439;-59
2021/10/25 01:53:17;;;;;;;5.90;4.50;;;;;;;;;;5075389;28;20250;-59
2021/10/25 01:55:43;;;;;;;7.73;5.17;;;;;;;;;;5074750;28;20216;-60
2021/10/25 01:58:08;;;;;;;7.13;5.53;;;;;;;;;;5075345;28;20215;-58
2021/10/25 02:00:34;;;;;;;6.20;5.30;;;;;;;;;;5075048;28;20561;-60
2021/10/25 02:03:00;;;;;;;5.37;4.57;;;;;;;;;;5076786;28;20215;-59
2021/10/25 02:05:25;;;;;;;7.67;5.73;;;;;;;;;;5079376;28;20473;-59
2021/10/25 02:07:51;;;;;;;6.93;5.20;;;;;;;;;;5078728;28;20298;-59
2021/10/25 02:10:16;;;;;;;7.80;4.70;;;;;;;;;;5078407;28;20304;-59
2021/10/25 02:12:41;;;;;;;5.20;4.70;;;;;;;;;;5077302;28;20219;-58
2021/10/25 02:15:07;;;;;;;5.60;4.60;;;;;;;;;;5078957;28;20208;-59
2021/10/25 02:17:32;;;;;;;7.83;5.00;;;;;;;;;;5078263;28;20577;-60
2021/10/25 02:19:57;;;;;;;5.90;5.10;;;;;;;;;;5078639;28;20224;-59
2021/10/25 02:22:23;;;;;;;6.27;5.50;;;;;;;;;;5078384;28;20659;-58
2021/10/25 02:24:49;;;;;;;6.30;4.90;;;;;;;;;;5077791;28;20287;-59
2021/10/25 02:27:14;;;;;;;6.80;5.00;;;;;;;;;;5078673;28;20243;-59
2021/10/25 02:29:40;;;;;;;6.80;5.63;;;;;;;;;;5078389;28;20284;-58
2021/10/25 02:32:06;;;;;;;6.77;4.97;;;;;;;;;;5078675;28;20214;-59
2021/10/25 02:34:32;;;;;;;12.53;5.63;;;;;;;;;;5077987;28;20214;-60
2021/10/25 02:36:58;;;;;;;5.60;4.77;;;;;;;;;;5078295;28;20424;-59
2021/10/25 02:39:24;;;;;;;6.20;5.03;;;;;;;;;;5078576;28;20810;-59
2021/10/25 02:41:50;;;;;;;8.83;4.80;;;;;;;;;;5078056;28;20528;-59
2021/10/25 02:44:15;;;;;;;6.00;4.87;;;;;;;;;;5078301;28;20559;-59
2021/10/25 02:46:40;;;;;;;7.30;5.10;;;;;;;;;;5077381;28;20274;-64
2021/10/25 02:49:06;;;;;;;6.10;5.30;;;;;;;;;;5077568;28;20655;-59
2021/10/25 02:51:31;;;;;;;7.80;5.97;;;;;;;;;;5059400;28;20225;-59
2021/10/25 02:53:57;;;;;;;6.40;5.13;;;;;;;;;;5045950;28;20309;-59
2021/10/25 02:56:23;;;;;;;8.07;5.17;;;;;;;;;;5066301;28;20217;-59
2021/10/25 02:58:48;;;;;;;7.13;5.50;;;;;;;;;;5065388;28;20774;-59
2021/10/25 03:01:14;;;;;;;9.60;5.90;;;;;;;;;;5071243;28;20564;-59
2021/10/25 03:03:39;;;;;;;5.37;4.87;;;;;;;;;;5069142;28;20220;-58
2021/10/25 03:06:05;;;;;;;6.10;4.93;;;;;;;;;;5064180;28;20626;-59
2021/10/25 03:08:30;;;;;;;10.63;5.00;;;;;;;;;;5066727;28;20640;-59
2021/10/25 03:10:55;;;;;;;5.43;4.73;;;;;;;;;;5070112;28;20232;-58
2021/10/25 03:13:21;;;;;;;7.77;5.13;;;;;;;;;;5066514;28;20537;-59
2021/10/25 03:15:47;;;;;;;9.80;5.67;;;;;;;;;;5063049;28;20305;-59
2021/10/25 03:18:14;;;;;;;6.40;5.70;;;;;;;;;;5068477;28;20432;-59
2021/10/25 03:20:39;;;;;;;5.90;5.07;;;;;;;;;;5069871;28;20226;-59
2021/10/25 03:23:05;;;;;;;9.00;5.00;;;;;;;;;;5066550;28;20524;-59
2021/10/25 03:25:30;;;;;;;6.80;4.80;;;;;;;;;;5063520;28;20463;-59
2021/10/25 03:27:56;;;;;;;6.53;5.40;;;;;;;;;;5067719;28;20220;-59
2021/10/25 03:30:21;;;;;;;6.90;5.63;;;;;;;;;;5070657;28;20246;-59
2021/10/25 03:32:47;;;;;;;6.80;4.87;;;;;;;;;;5065629;28;20219;-59
2021/10/25 03:35:12;;;;;;;6.90;5.27;;;;;;;;;;5063391;28;20273;-59
2021/10/25 03:37:39;;;;;;;6.67;5.03;;;;;;;;;;5068492;28;20220;-59
2021/10/25 03:40:05;;;;;;;9.83;6.23;;;;;;;;;;5070049;28;20254;-59
2021/10/25 03:42:41;;;;;;;6.40;5.37;;;;;;;;;;5065483;28;20810;-59
2021/10/25 03:48:00;;;;;;;12.43;5.60;;;;;;;;;;5064370;28;20801;-59
2021/10/25 03:50:29;;;;;;;6.80;5.30;;;;;;;;;;5050388;28;20502;-59
2021/10/25 03:53:05;;;;;;;6.47;4.80;;;;;;;;;;5057449;28;20437;-58
2021/10/25 04:00:52;;;;;;;8.20;5.73;;;;;;;;;;5067489;28;20499;-59
2021/10/25 04:03:42;;;;;;;7.10;6.10;;;;;;;;;;5050761;28;20528;-59
2021/10/25 04:25:45;;;;;;;8.23;5.60;;;;;;;;;;5069128;28;20552;-59
2021/10/25 04:28:09;;;;;;;6.50;5.57;;;;;;;;;;5066128;28;20477;-60
2021/10/25 04:30:36;;;;;;;6.13;5.53;;;;;;;;;;5062156;28;20499;-59
2021/10/25 04:33:01;;;;;;;8.63;5.27;;;;;;;;;;5064103;28;20453;-61
2021/10/25 04:35:28;;;;;;;8.10;5.27;;;;;;;;;;5069048;28;20526;-59
2021/10/25 04:37:54;;;;;;;7.47;5.70;;;;;;;;;;5067005;28;20216;-59
2021/10/25 04:40:19;;;;;;;7.33;5.53;;;;;;;;;;5062125;28;20470;-59
2021/10/25 04:42:45;;;;;;;5.80;5.30;;;;;;;;;;5065905;28;20245;-60
2021/10/25 04:45:10;;;;;;;6.37;5.07;;;;;;;;;;5068540;28;20670;-59
2021/10/25 04:47:36;;;;;;;8.53;5.03;;;;;;;;;;5066146;28;20296;-59
2021/10/25 04:50:06;;;;;;;8.97;5.60;;;;;;;;;;5062173;28;20218;-60
2021/10/25 04:52:31;;;;;;;9.03;5.43;;;;;;;;;;5064072;28;20512;-59
2021/10/25 04:54:56;;;;;;;6.23;5.63;;;;;;;;;;5069548;28;20915;-59
2021/10/25 04:57:22;;;;;;;5.90;5.10;;;;;;;;;;5063071;28;20220;-59
2021/10/25 04:59:47;;;;;;;8.13;5.50;;;;;;;;;;5061933;28;20225;-58
2021/10/25 05:02:13;;;;;;;8.13;6.03;;;;;;;;;;5067616;28;20217;-60
2021/10/25 05:04:38;;;;;;;6.03;5.30;;;;;;;;;;5069171;28;20222;-59
2021/10/25 05:07:04;;;;;;;6.13;5.40;;;;;;;;;;5062858;28;20450;-59
2021/10/25 05:09:29;;;;;;;5.80;5.30;;;;;;;;;;5062003;28;20232;-59
2021/10/25 05:11:55;;;;;;;7.83;6.40;;;;;;;;;;5068252;28;20299;-58
2021/10/25 05:14:20;;;;;;;8.03;5.53;;;;;;;;;;5066947;28;20229;-58
2021/10/25 05:16:46;;;;;;;7.30;5.83;;;;;;;;;;5061737;28;20300;-59
2021/10/25 05:19:11;;;;;;;8.30;6.03;;;;;;;;;;5063687;28;20219;-60
2021/10/25 05:21:36;;;;;;;9.67;5.53;;;;;;;;;;5068675;28;20218;-58
2021/10/25 05:24:02;;;;;;;6.27;5.67;;;;;;;;;;5066419;28;20220;-60
2021/10/25 05:26:29;;;;;;;9.63;6.70;;;;;;;;;;5055047;28;20238;-59
2021/10/25 05:28:54;;;;;;;8.13;5.47;;;;;;;;;;5059174;28;20862;-59
2021/10/25 05:31:19;;;;;;;6.80;5.87;;;;;;;;;;5064173;28;20472;-58
2021/10/25 05:33:45;;;;;;;6.27;5.67;;;;;;;;;;5069968;28;20525;-59
2021/10/25 05:36:10;;;;;;;8.30;7.43;;;;;;;;;;5064640;28;20232;-60
2021/10/25 05:38:37;;;;;;;14.50;6.00;;;;;;;;;;5075119;28;20556;-59
2021/10/25 05:41:03;;;;;;;9.47;6.87;;;;;;;;;;5069140;28;20718;-59
2021/10/25 05:43:28;;;;;;;8.27;6.87;;;;;;;;;;5062894;28;20460;-59
2021/10/25 05:45:54;;;;;;;6.97;6.33;;;;;;;;;;5071381;28;20520;-59
2021/10/25 05:48:19;;;;;;;9.17;6.40;;;;;;;;;;5064224;28;20309;-60
2021/10/25 05:50:46;;;;;;;7.13;6.33;;;;;;;;;;5070718;28;20315;-59
2021/10/25 05:53:12;;;;;;;7.60;6.57;;;;;;;;;;5072065;28;20220;-60
2021/10/25 05:55:39;;;;;;;13.13;8.10;;;;;;;;;;5067444;28;20456;-58
2021/10/25 05:58:05;;;;;;;11.27;6.67;;;;;;;;;;5065498;28;20460;-58
2021/10/25 06:00:35;;;;;;;7.10;6.33;;;;;;;;;;5069914;28;20992;-59
2021/10/25 06:03:00;;;;;;;6.90;6.30;;;;;;;;;;5074010;28;20939;-59
2021/10/25 06:05:30;;;;;;;10.70;8.00;;;;;;;;;;5069716;28;20473;-59
2021/10/25 06:07:55;;;;;;;7.33;6.10;;;;;;;;;;5072070;28;20214;-59
2021/10/25 06:10:31;;;;;;;8.30;6.53;;;;;;;;;;5066895;28;20540;-59
2021/10/25 06:13:01;;;;;;;10.90;5.97;;;;;;;;;;5064838;28;20220;-59
2021/10/25 06:15:30;;;;;;;11.50;7.23;;;;;;;;;;5067570;28;20452;-59
2021/10/25 06:17:57;;;;;;;11.70;6.47;;;;;;;;;;5071051;28;20437;-58
2021/10/25 06:20:28;;;;;;;10.00;6.83;;;;;;;;;;5069625;28;20524;-60
2021/10/25 06:22:54;;;;;;;7.13;6.43;;;;;;;;;;5064939;28;20494;-58
2021/10/25 06:25:22;;;;;;;10.13;5.93;;;;;;;;;;5066307;28;20967;-60
2021/10/25 06:27:47;;;;;;;12.93;6.37;;;;;;;;;;5071478;28;20544;-59
2021/10/25 06:30:13;;;;;;;11.00;7.40;;;;;;;;;;5069407;28;20500;-59
2021/10/25 06:32:40;;;;;;;8.67;6.50;;;;;;;;;;5064955;28;20540;-59
2021/10/25 06:35:07;;;;;;;15.00;5.77;;;;;;;;;;5066773;28;20330;-59
2021/10/25 06:37:55;;;;;;;6.13;5.53;;;;;;;;;;5070227;28;20463;-59
2021/10/25 06:40:21;;;;;;;8.47;6.23;;;;;;;;;;5071126;28;20461;-60
2021/10/25 06:42:50;;;;;;;9.10;6.13;;;;;;;;;;5064877;28;20768;-59
2021/10/25 06:45:19;;;;;;;11.03;6.77;;;;;;;;;;5064128;28;20464;-60
2021/10/25 06:47:44;;;;;;;7.67;6.03;;;;;;;;;;5069572;28;20534;-59
2021/10/25 06:50:10;;;;;;;9.70;6.10;;;;;;;;;;5071035;28;20950;-59
2021/10/25 06:52:36;;;;;;;10.00;6.00;;;;;;;;;;5066115;28;20266;-60
2021/10/25 06:55:03;;;;;;;9.90;7.13;;;;;;;;;;5064556;28;20211;-59
2021/10/25 06:57:29;;;;;;;8.23;6.93;;;;;;;;;;5069653;28;20433;-59
2021/10/25 06:59:54;;;;;;;12.93;6.90;;;;;;;;;;5071039;28;20450;-60
2021/10/25 07:02:20;;;;;;;7.90;6.63;;;;;;;;;;5064248;28;20307;-59
2021/10/25 07:04:47;;;;;;;10.60;6.83;;;;;;;;;;5077547;28;20224;-59
2021/10/25 07:07:12;;;;;;;9.27;6.30;;;;;;;;;;5064458;28;20225;-59
2021/10/25 07:09:38;;;;;;;7.40;5.80;;;;;;;;;;5063712;28;20469;-60
2021/10/25 07:12:03;;;;;;;9.47;6.07;;;;;;;;;;5070955;28;20650;-60
2021/10/25 07:14:33;;;;;;;8.00;6.27;;;;;;;;;;5070912;28;20221;-59
2021/10/25 07:17:11;;;;;;;11.00;6.80;;;;;;;;;;5065465;28;20714;-59
2021/10/25 07:19:50;;;;;;;8.80;7.10;;;;;;;;;;5063108;28;20946;-59
2021/10/25 07:22:42;;;;;;;8.47;6.00;;;;;;;;;;5066423;28;20524;-58
2021/10/25 08:05:40;;;;;;;11.37;6.07;;;;;;;;;;5062883;28;20475;-58
2021/10/25 08:11:05;;;;;;;7.07;6.10;;;;;;;;;;5070014;28;20482;-60
2021/10/25 08:13:39;;;;;;;6.97;5.70;;;;;;;;;;5070301;28;21001;-59
2021/10/25 08:16:10;;;;;;;9.50;6.50;;;;;;;;;;5064979;28;20458;-59
2021/10/25 08:18:53;;;;;;;8.20;5.57;;;;;;;;;;5063132;28;20466;-59
2021/10/25 08:21:22;;;;;;;8.70;5.40;;;;;;;;;;5064943;28;20494;-59
2021/10/25 08:23:49;;;;;;;7.10;5.90;;;;;;;;;;5070214;28;20797;-59
2021/10/25 08:26:14;;;;;;;10.63;6.13;;;;;;;;;;5068347;28;20466;-59
2021/10/25 08:28:40;;;;;;;7.70;5.60;;;;;;;;;;5060299;28;20441;-59
2021/10/25 08:31:08;;;;;;;12.70;7.80;;;;;;;;;;5065052;28;20315;-59
2021/10/25 08:36:16;;;;;;;11.40;5.90;;;;;;;;;;5073618;28;20562;-59
2021/10/25 08:41:44;;;;;;;7.80;5.60;;;;;;;;;;5040578;28;20424;-59
2021/10/25 08:44:09;;;;;;;7.23;6.10;;;;;;;;;;5062775;28;20549;-59
2021/10/25 08:46:35;;;;;;;7.10;6.40;;;;;;;;;;5069372;28;20445;-59
2021/10/25 08:49:00;;;;;;;7.00;5.40;;;;;;;;;;5064818;28;20690;-59
2021/10/25 08:51:26;;;;;;;9.20;5.77;;;;;;;;;;5061790;28;20707;-59
2021/10/25 08:53:52;;;;;;;8.00;5.33;;;;;;;;;;5067215;28;20214;-59
2021/10/25 08:56:18;;;;;;;7.90;5.10;;;;;;;;;;5069284;28;20246;-59
2021/10/25 08:58:49;;;;;;;7.30;5.13;;;;;;;;;;5063313;28;20222;-59
2021/10/25 09:01:32;;;;;;;6.13;4.60;;;;;;;;;;5062597;28;20433;-59
2021/10/25 09:04:13;;;;;;;9.07;5.50;;;;;;;;;;5065337;28;20482;-59
2021/10/25 09:06:48;;;;;;;6.40;5.30;;;;;;;;;;5068468;28;20440;-60
2021/10/25 09:09:14;;;;;;;12.93;6.10;;;;;;;;;;5069467;28;20443;-60
2021/10/25 09:12:04;;;;;;;9.93;5.80;;;;;;;;;;5063890;28;20445;-59
2021/10/25 09:14:32;;;;;;;7.00;5.70;;;;;;;;;;5066249;28;20224;-60
2021/10/25 09:16:59;;;;;;;9.40;5.20;;;;;;;;;;5068640;28;20472;-59
2021/10/25 09:19:27;;;;;;;8.07;5.57;;;;;;;;;;5073601;28;20521;-59
2021/10/25 09:22:13;;;;;;;6.53;5.00;;;;;;;;;;5070255;28;20490;-59
2021/10/25 09:24:38;;;;;;;7.50;4.87;;;;;;;;;;5055218;28;20519;-59
2021/10/25 09:27:07;;;;;;;7.60;5.73;;;;;;;;;;5065818;28;20453;-59
2021/10/25 09:29:35;;;;;;;6.97;5.73;;;;;;;;;;5068858;28;20213;-59
2021/10/25 09:32:08;;;;;;;7.63;5.83;;;;;;;;;;5072318;28;20465;-59
2021/10/25 09:34:50;;;;;;;4.90;4.37;;;;;;;;;;5071008;28;20477;-60
2021/10/25 09:37:21;;;;;;;8.67;5.83;;;;;;;;;;5072279;28;20803;-59
2021/10/25 09:50:43;;;;;;;6.50;5.60;;;;;;;;;;5056057;28;20459;-59
2021/10/25 09:53:09;;;;;;;8.37;4.90;;;;;;;;;;5065754;28;20471;-59
2021/10/25 09:55:43;;;;;;;7.83;5.60;;;;;;;;;;5069618;28;20931;-61
2021/10/25 09:58:17;;;;;;;8.03;5.47;;;;;;;;;;5072209;28;20853;-59
2021/10/25 10:00:43;;;;;;;7.83;5.13;;;;;;;;;;5070169;28;20478;-59
2021/10/25 10:03:09;;;;;;;10.70;5.30;;;;;;;;;;5065398;28;20456;-59
2021/10/25 10:05:36;;;;;;;6.20;5.60;;;;;;;;;;5066552;28;20518;-60
2021/10/25 10:08:03;;;;;;;9.47;5.20;;;;;;;;;;5072482;28;20309;-60
2021/10/25 10:10:29;;;;;;;6.23;5.53;;;;;;;;;;5069881;28;20532;-60
2021/10/25 10:12:54;;;;;;;8.00;5.73;;;;;;;;;;5064347;28;20764;-59
2021/10/25 10:15:21;;;;;;;8.50;4.80;;;;;;;;;;5066106;28;20221;-59
2021/10/25 10:17:46;;;;;;;7.13;6.43;;;;;;;;;;5053749;28;20300;-59
2021/10/25 10:20:14;;;;;;;7.47;5.38;;;;;;;;;;5069397;28;20438;-59
2021/10/25 10:22:45;;;;;;;7.27;4.90;;;;;;;;;;5064450;28;20295;-59
2021/10/25 10:25:11;;;;;;;8.40;5.60;;;;;;;;;;5065570;28;20520;-58
2021/10/25 10:27:36;;;;;;;9.20;5.57;;;;;;;;;;5069899;28;20992;-60
2021/10/25 10:30:07;;;;;;;7.20;5.13;;;;;;;;;;5053953;28;20252;-59
2021/10/25 10:32:33;;;;;;;7.83;5.57;;;;;;;;;;5051659;28;20282;-59
2021/10/25 10:35:04;;;;;;;7.87;6.23;;;;;;;;;;5064133;28;20947;-59
2021/10/25 10:37:32;;;;;;;6.10;5.00;;;;;;;;;;5052631;28;20250;-59
2021/10/25 10:40:06;;;;;;;6.90;5.27;;;;;;;;;;5063207;28;20578;-58
2021/10/25 10:42:36;;;;;;;7.83;5.97;;;;;;;;;;5068107;28;20458;-59
2021/10/25 10:45:07;;;;;;;5.80;4.83;;;;;;;;;;5069833;28;20827;-59
2021/10/25 10:50:17;;;;;;;7.10;5.80;;;;;;;;;;5063112;28;20519;-59
2021/10/25 10:52:46;;;;;;;8.33;5.30;;;;;;;;;;5063922;28;20463;-63
2021/10/25 10:55:16;;;;;;;6.17;5.57;;;;;;;;;;5068995;28;20474;-63
2021/10/25 10:57:58;;;;;;;6.63;5.10;;;;;;;;;;5068521;28;20451;-63
2021/10/25 11:00:44;;;;;;;6.43;5.20;;;;;;;;;;5052971;28;20473;-63
2021/10/25 11:03:16;;;;;;;6.47;5.77;;;;;;;;;;5061875;28;20450;-63
2021/10/25 11:05:44;;;;;;;8.97;6.47;;;;;;;;;;5063631;28;20470;-63
2021/10/25 11:08:21;;;;;;;6.53;5.67;;;;;;;;;;5068552;28;20463;-64
2021/10/25 11:10:48;;;;;;;6.20;5.60;;;;;;;;;;5068189;28;20501;-63
2021/10/25 11:13:18;;;;;;;9.60;5.40;;;;;;;;;;5063055;28;20462;-63
2021/10/25 11:16:09;;;;;;;6.40;5.80;;;;;;;;;;5061969;28;20782;-63
2021/10/25 11:18:37;;;;;;;7.50;5.30;;;;;;;;;;5063701;28;20532;-63
2021/10/25 11:21:20;;;;;;;8.27;6.33;;;;;;;;;;5068292;28;20475;-63
2021/10/25 11:23:52;;;;;;;7.33;6.53;;;;;;;;;;5068070;28;20447;-63
2021/10/25 11:26:23;;;;;;;6.57;5.30;;;;;;;;;;5063666;28;20832;-64
2021/10/25 11:29:13;;;;;;;7.33;5.70;;;;;;;;;;5058896;28;20918;-64
2021/10/25 11:31:44;;;;;;;7.90;6.30;;;;;;;;;;5068049;28;20463;-63
2021/10/25 11:34:29;;;;;;;7.47;6.13;;;;;;;;;;5062835;28;20453;-63
2021/10/25 11:37:08;;;;;;;9.47;6.87;;;;;;;;;;5068435;28;20545;-63
2021/10/25 11:40:00;;;;;;;10.33;6.00;;;;;;;;;;5066700;28;21000;-63
2021/10/25 11:42:27;;;;;;;7.43;6.67;;;;;;;;;;5052917;28;20450;-63
2021/10/25 11:44:55;;;;;;;6.33;5.70;;;;;;;;;;5061130;28;20454;-63
2021/10/25 11:47:31;;;;;;;8.47;5.90;;;;;;;;;;5065519;28;20467;-63
2021/10/25 11:50:15;;;;;;;8.87;6.00;;;;;;;;;;5067372;28;20481;-63
2021/10/25 11:52:44;;;;;;;8.20;5.70;;;;;;;;;;5067611;28;20475;-63
2021/10/25 11:55:13;;;;;;;7.50;5.87;;;;;;;;;;5048181;28;20520;-63
2021/10/25 11:58:05;;;;;;;10.10;6.23;;;;;;;;;;5061025;28;20466;-63
2021/10/25 12:00:34;;;;;;;11.00;6.73;;;;;;;;;;5062549;28;20948;-64
2021/10/25 12:03:17;;;;;;;11.40;6.40;;;;;;;;;;5068010;28;20517;-63
2021/10/25 12:05:43;;;;;;;8.20;7.03;;;;;;;;;;5067254;28;20463;-62
2021/10/25 12:08:10;;;;;;;7.70;6.33;;;;;;;;;;5061020;28;20458;-63
2021/10/25 12:10:36;;;;;;;6.23;5.63;;;;;;;;;;5060958;28;20468;-63
2021/10/25 12:13:03;;;;;;;7.17;6.47;;;;;;;;;;5067564;28;20452;-63
2021/10/25 12:15:31;;;;;;;7.57;6.33;;;;;;;;;;5067904;28;20470;-63
2021/10/25 12:18:01;;;;;;;10.83;6.67;;;;;;;;;;5046427;28;20933;-63
2021/10/25 12:20:30;;;;;;;9.93;6.30;;;;;;;;;;5060725;28;20798;-64
2021/10/25 12:22:57;;;;;;;7.33;6.43;;;;;;;;;;5066215;28;20458;-63
2021/10/25 12:25:22;;;;;;;8.40;6.37;;;;;;;;;;5067519;28;20454;-63
2021/10/25 12:27:47;;;;;;;10.07;6.13;;;;;;;;;;5061378;28;20528;-62
2021/10/25 12:30:13;;;;;;;7.00;6.30;;;;;;;;;;5060239;28;20303;-63
2021/10/25 12:32:54;;;;;;;9.50;7.93;;;;;;;;;;5065556;28;20560;-61
2021/10/25 12:35:33;;;;;;;7.80;6.47;;;;;;;;;;5068833;28;20961;-63
2021/10/25 12:38:02;;;;;;;8.77;7.17;;;;;;;;;;5061702;28;20463;-63
2021/10/25 12:40:29;;;;;;;8.33;6.97;;;;;;;;;;5066997;28;20773;-63
2021/10/25 12:42:59;;;;;;;7.30;6.57;;;;;;;;;;5065930;28;20841;-63
2021/10/25 12:45:29;;;;;;;7.47;6.23;;;;;;;;;;5060311;28;20474;-63
2021/10/25 12:47:59;;;;;;;7.60;6.80;;;;;;;;;;5059591;28;20513;-63
2021/10/25 12:50:24;;;;;;;18.07;7.63;;;;;;;;;;5047983;28;20461;-64
2021/10/25 12:52:54;;;;;;;11.93;5.83;;;;;;;;;;5058710;28;20460;-63
2021/10/25 12:55:19;;;;;;;12.87;8.17;;;;;;;;;;5066574;28;20225;-64
2021/10/25 12:57:44;;;;;;;8.67;7.10;;;;;;;;;;5066498;28;20493;-63
2021/10/25 13:00:11;;;;;;;6.87;5.70;;;;;;;;;;5060640;28;20307;-63
2021/10/25 13:02:39;;;;;;;6.90;6.20;;;;;;;;;;5059762;28;20247;-63
2021/10/25 13:05:15;;;;;;;7.47;6.70;;;;;;;;;;5066084;28;20451;-62
2021/10/25 13:07:57;;;;;;;9.47;6.67;;;;;;;;;;5066902;28;20454;-65
2021/10/25 13:10:30;;;;;;;9.67;7.23;;;;;;;;;;5063527;28;20896;-63
2021/10/25 13:12:57;;;;;;;11.20;7.47;;;;;;;;;;5059417;28;20474;-63
2021/10/25 13:15:24;;;;;;;9.97;6.63;;;;;;;;;;5061695;28;20456;-63
2021/10/25 13:17:50;;;;;;;7.07;6.47;;;;;;;;;;5066356;28;20456;-63
2021/10/25 13:20:18;;;;;;;8.07;7.27;;;;;;;;;;5065021;28;20474;-62
2021/10/25 13:22:44;;;;;;;8.90;6.90;;;;;;;;;;5059596;28;20477;-63
2021/10/25 13:25:10;;;;;;;9.70;7.77;;;;;;;;;;5061282;28;20528;-62
2021/10/25 13:27:35;;;;;;;9.03;6.93;;;;;;;;;;5067031;28;20474;-63
2021/10/25 13:30:03;;;;;;;8.43;7.47;;;;;;;;;;5052849;28;20270;-64
2021/10/25 13:32:28;;;;;;;10.57;7.67;;;;;;;;;;5047678;28;20610;-63
2021/10/25 13:34:54;;;;;;;11.60;7.53;;;;;;;;;;5059384;28;20466;-64
2021/10/25 13:37:19;;;;;;;10.17;7.67;;;;;;;;;;5066556;28;20320;-63
2021/10/25 13:39:45;;;;;;;8.93;6.90;;;;;;;;;;5066043;28;20575;-63
2021/10/25 13:42:11;;;;;;;9.37;7.83;;;;;;;;;;5059184;28;20227;-63
2021/10/25 13:44:36;;;;;;;9.20;8.17;;;;;;;;;;5059690;28;20228;-63
2021/10/25 13:47:01;;;;;;;8.33;7.30;;;;;;;;;;5065919;28;20517;-62
2021/10/25 13:49:26;;;;;;;12.20;7.50;;;;;;;;;;5066628;28;20208;-64
2021/10/25 13:51:52;;;;;;;8.13;6.63;;;;;;;;;;5058939;28;20239;-63
2021/10/25 13:54:17;;;;;;;8.90;6.77;;;;;;;;;;5059946;28;20224;-62
2021/10/25 13:56:43;;;;;;;9.90;7.70;;;;;;;;;;5066431;28;20303;-63
2021/10/25 13:59:08;;;;;;;11.60;8.10;;;;;;;;;;5066850;28;21399;-64
2021/10/25 14:01:34;;;;;;;8.20;7.07;;;;;;;;;;5063251;28;20229;-62
2021/10/25 14:03:59;;;;;;;9.67;7.40;;;;;;;;;;5060770;28;20244;-62
2021/10/25 14:06:30;;;;;;;9.57;6.97;;;;;;;;;;5051511;28;20650;-63
2021/10/25 14:08:55;;;;;;;9.07;8.03;;;;;;;;;;5052442;28;20239;-63
2021/10/25 14:11:24;;;;;;;11.10;6.90;;;;;;;;;;5070062;28;20565;-62
2021/10/25 14:18:47;;;;;;;7.93;6.67;;;;;;;;;;5063211;28;20224;-62
2021/10/25 14:21:15;;;;;;;9.70;7.30;;;;;;;;;;5069411;28;20539;-62
2021/10/25 14:23:42;;;;;;;8.57;7.13;;;;;;;;;;5069755;28;20537;-62
2021/10/25 14:26:07;;;;;;;8.33;6.40;;;;;;;;;;5062415;28;20461;-62
2021/10/25 14:28:32;;;;;;;10.33;7.30;;;;;;;;;;5063364;28;20958;-62
2021/10/25 14:30:58;;;;;;;8.93;7.57;;;;;;;;;;5069297;28;20307;-61
2021/10/25 14:33:26;;;;;;;9.17;7.50;;;;;;;;;;5068882;28;20238;-63
2021/10/25 14:35:53;;;;;;;10.77;8.33;;;;;;;;;;5061550;28;20516;-64
2021/10/25 14:43:44;;;;;;;9.50;8.03;;;;;;;;;;5062836;28;20616;-63
2021/10/25 14:46:13;;;;;;;8.90;7.17;;;;;;;;;;5064803;28;20452;-61
2021/10/25 14:53:53;;;;;;;8.07;7.37;;;;;;;;;;5050277;28;20528;-63
2021/10/25 14:56:20;;;;;;;9.53;6.93;;;;;;;;;;5062296;28;20464;-64
2021/10/25 14:58:45;;;;;;;9.33;7.67;;;;;;;;;;5068592;28;20528;-64
2021/10/25 15:01:10;;;;;;;7.67;6.93;;;;;;;;;;5068453;28;20467;-65
2021/10/25 15:03:37;;;;;;;11.53;8.13;;;;;;;;;;5062748;28;20247;-61
2021/10/25 15:06:02;;;;;;;9.87;8.07;;;;;;;;;;5061320;28;20577;-62
2021/10/25 15:08:28;;;;;;;7.90;7.13;;;;;;;;;;5054080;28;20562;-63
2021/10/25 15:10:54;;;;;;;9.77;7.70;;;;;;;;;;5052870;28;20260;-62
2021/10/25 15:13:20;;;;;;;9.90;7.23;;;;;;;;;;5053588;28;20221;-63
2021/10/25 15:15:46;;;;;;;12.67;7.73;;;;;;;;;;5053549;28;20456;-63
2021/10/25 15:18:11;;;;;;;7.87;6.93;;;;;;;;;;5053025;28;20928;-63
2021/10/25 15:20:37;;;;;;;9.70;7.50;;;;;;;;;;5054802;28;20298;-63
2021/10/25 15:23:03;;;;;;;8.60;7.10;;;;;;;;;;5055299;28;20326;-62
2021/10/25 15:25:37;;;;;;;9.27;7.47;;;;;;;;;;5055523;28;20463;-63
2021/10/25 15:28:04;;;;;;;9.40;7.17;;;;;;;;;;5054942;28;20471;-63
2021/10/25 15:30:30;;;;;;;8.50;7.10;;;;;;;;;;5054333;28;20482;-63
2021/10/25 15:32:56;;;;;;;10.07;7.40;;;;;;;;;;5055016;28;20467;-63
2021/10/25 15:35:21;;;;;;;8.50;7.60;;;;;;;;;;5055211;28;20471;-63
2021/10/25 15:37:46;;;;;;;8.20;7.40;;;;;;;;;;5055253;28;20300;-62
2021/10/25 15:40:12;;;;;;;10.13;7.43;;;;;;;;;;5054535;28;20676;-63
2021/10/25 15:42:37;;;;;;;9.23;6.97;;;;;;;;;;5055183;28;20323;-62
2021/10/25 15:45:05;;;;;;;12.27;7.50;;;;;;;;;;5055044;28;20220;-62
2021/10/25 15:47:30;;;;;;;10.40;7.17;;;;;;;;;;5054848;28;20699;-63
2021/10/25 15:49:57;;;;;;;8.97;8.17;;;;;;;;;;5054554;28;20475;-63
2021/10/25 15:52:23;;;;;;;8.10;6.40;;;;;;;;;;5054705;28;20217;-63
2021/10/25 15:54:49;;;;;;;8.40;7.60;;;;;;;;;;5054981;28;20481;-63
2021/10/25 15:57:15;;;;;;;9.27;7.40;;;;;;;;;;5054609;28;20459;-64
2021/10/25 15:59:42;;;;;;;13.77;8.03;;;;;;;;;;5054592;28;20559;-63
2021/10/25 16:02:08;;;;;;;8.77;7.20;;;;;;;;;;5054483;28;20500;-63
2021/10/25 16:04:33;;;;;;;10.50;7.13;;;;;;;;;;5054592;28;20548;-62
2021/10/25 16:06:59;;;;;;;9.77;7.43;;;;;;;;;;5054173;28;20686;-62
2021/10/25 16:09:24;;;;;;;10.37;8.53;;;;;;;;;;5054581;28;20238;-64
2021/10/25 16:11:51;;;;;;;13.73;7.87;;;;;;;;;;5054270;28;20815;-63
2021/10/25 16:14:17;;;;;;;8.60;7.30;;;;;;;;;;5054007;28;20245;-62
2021/10/25 16:16:43;;;;;;;8.40;7.60;;;;;;;;;;5054525;28;20933;-62
2021/10/25 16:19:08;;;;;;;8.70;7.50;;;;;;;;;;5053736;28;20466;-63
2021/10/25 16:21:34;;;;;;;12.17;10.30;;;;;;;;;;5053697;28;20228;-62
2021/10/25 16:23:59;;;;;;;13.30;8.43;;;;;;;;;;5054122;28;20636;-63
2021/10/25 16:26:25;;;;;;;14.73;7.57;;;;;;;;;;5054472;28;20655;-63
2021/10/25 16:28:50;;;;;;;10.17;8.63;;;;;;;;;;5054414;28;20308;-62
2021/10/25 16:31:16;;;;;;;9.60;7.70;;;;;;;;;;5053898;28;20349;-63